sensor_id;sensor_type;location;lat;lon;timestamp;temperature;humidity
68609;SHT31;55581;46.718;7.690;2023-09-19T00:01:54;15.76;92.33
68609;SHT31;55581;46.718;7.690;2023-09-19T00:04:22;15.59;92.88
68609;SHT31;55581;46.718;7.690;2023-09-19T00:06:54;15.56;90.23
68609;SHT31;55581;46.718;7.690;2023-09-19T00:09:19;15.54;92.67
68609;SHT31;55581;46.718;7.690;2023-09-19T00:11:45;15.62;92.10
68609;SHT31;55581;46.718;7.690;2023-09-19T00:14:12;15.70;91.24
68609;SHT31;55581;46.718;7.690;2023-09-19T00:16:39;15.67;91.79
68609;SHT31;55581;46.718;7.690;2023-09-19T00:19:06;15.63;91.84
68609;SHT31;55581;46.718;7.690;2023-09-19T00:21:34;15.67;91.26
68609;SHT31;55581;46.718;7.690;2023-09-19T00:24:03;15.69;90.92
68609;SHT31;55581;46.718;7.690;2023-09-19T00:26:32;15.69;91.67
68609;SHT31;55581;46.718;7.690;2023-09-19T00:28:57;15.69;91.46
68609;SHT31;55581;46.718;7.690;2023-09-19T00:31:25;15.70;91.53
68609;SHT31;55581;46.718;7.690;2023-09-19T00:33:50;15.67;91.64
68609;SHT31;55581;46.718;7.690;2023-09-19T00:36:16;15.66;90.75
68609;SHT31;55581;46.718;7.690;2023-09-19T00:38:46;15.72;90.53
68609;SHT31;55581;46.718;7.690;2023-09-19T00:41:14;15.70;90.65
68609;SHT31;55581;46.718;7.690;2023-09-19T00:43:39;15.72;90.52
68609;SHT31;55581;46.718;7.690;2023-09-19T00:46:06;15.65;91.66
68609;SHT31;55581;46.718;7.690;2023-09-19T00:48:40;15.55;93.27
68609;SHT31;55581;46.718;7.690;2023-09-19T00:51:09;15.51;93.69
68609;SHT31;55581;46.718;7.690;2023-09-19T00:53:37;15.55;93.62
68609;SHT31;55581;46.718;7.690;2023-09-19T00:56:03;15.46;93.96
68609;SHT31;55581;46.718;7.690;2023-09-19T00:58:34;15.44;94.52
68609;SHT31;55581;46.718;7.690;2023-09-19T01:01:01;15.48;94.00
68609;SHT31;55581;46.718;7.690;2023-09-19T01:03:27;15.46;93.89
68609;SHT31;55581;46.718;7.690;2023-09-19T01:05:53;15.49;89.98
68609;SHT31;55581;46.718;7.690;2023-09-19T01:08:18;15.56;88.54
68609;SHT31;55581;46.718;7.690;2023-09-19T01:10:55;15.54;91.54
68609;SHT31;55581;46.718;7.690;2023-09-19T01:16:44;15.46;92.71
68609;SHT31;55581;46.718;7.690;2023-09-19T01:22:03;15.45;92.52
68609;SHT31;55581;46.718;7.690;2023-09-19T01:30:24;15.49;90.46
68609;SHT31;55581;46.718;7.690;2023-09-19T01:32:53;15.49;90.93
68609;SHT31;55581;46.718;7.690;2023-09-19T01:35:19;15.49;91.35
68609;SHT31;55581;46.718;7.690;2023-09-19T01:37:44;15.49;91.36
68609;SHT31;55581;46.718;7.690;2023-09-19T01:40:12;15.44;91.79
68609;SHT31;55581;46.718;7.690;2023-09-19T01:45:51;15.46;91.08
68609;SHT31;55581;46.718;7.690;2023-09-19T01:48:28;15.28;91.78
68609;SHT31;55581;46.718;7.690;2023-09-19T01:51:03;15.28;91.13
68609;SHT31;55581;46.718;7.690;2023-09-19T01:53:39;15.28;92.28
68609;SHT31;55581;46.718;7.690;2023-09-19T01:56:08;15.14;93.56
68609;SHT31;55581;46.718;7.690;2023-09-19T01:58:41;15.08;93.73
68609;SHT31;55581;46.718;7.690;2023-09-19T02:01:11;15.03;93.62
68609;SHT31;55581;46.718;7.690;2023-09-19T02:03:40;14.94;94.21
68609;SHT31;55581;46.718;7.690;2023-09-19T02:06:06;14.97;94.24
68609;SHT31;55581;46.718;7.690;2023-09-19T02:08:36;14.91;94.44
68609;SHT31;55581;46.718;7.690;2023-09-19T02:11:02;14.87;94.18
68609;SHT31;55581;46.718;7.690;2023-09-19T02:13:30;14.87;94.46
68609;SHT31;55581;46.718;7.690;2023-09-19T02:15:57;14.81;95.27
68609;SHT31;55581;46.718;7.690;2023-09-19T02:18:22;14.81;95.34
68609;SHT31;55581;46.718;7.690;2023-09-19T02:20:48;14.80;95.68
68609;SHT31;55581;46.718;7.690;2023-09-19T02:23:14;14.87;95.90
68609;SHT31;55581;46.718;7.690;2023-09-19T02:25:40;14.73;96.08
68609;SHT31;55581;46.718;7.690;2023-09-19T02:28:08;14.80;96.35
68609;SHT31;55581;46.718;7.690;2023-09-19T02:30:36;14.81;96.33
68609;SHT31;55581;46.718;7.690;2023-09-19T02:33:02;14.83;96.13
68609;SHT31;55581;46.718;7.690;2023-09-19T02:35:28;14.87;96.05
68609;SHT31;55581;46.718;7.690;2023-09-19T02:37:57;14.89;95.95
68609;SHT31;55581;46.718;7.690;2023-09-19T02:40:23;14.93;95.65
68609;SHT31;55581;46.718;7.690;2023-09-19T02:42:53;14.94;95.19
68609;SHT31;55581;46.718;7.690;2023-09-19T02:45:19;15.01;94.28
68609;SHT31;55581;46.718;7.690;2023-09-19T02:47:48;15.10;93.04
68609;SHT31;55581;46.718;7.690;2023-09-19T02:50:15;15.18;91.40
68609;SHT31;55581;46.718;7.690;2023-09-19T02:52:45;15.11;93.36
68609;SHT31;55581;46.718;7.690;2023-09-19T02:55:14;15.08;94.09
68609;SHT31;55581;46.718;7.690;2023-09-19T02:58:03;15.00;93.99
68609;SHT31;55581;46.718;7.690;2023-09-19T03:00:33;14.91;94.57
68609;SHT31;55581;46.718;7.690;2023-09-19T03:02:59;14.91;94.58
68609;SHT31;55581;46.718;7.690;2023-09-19T03:05:25;14.86;95.02
68609;SHT31;55581;46.718;7.690;2023-09-19T03:07:51;14.90;94.94
68609;SHT31;55581;46.718;7.690;2023-09-19T03:10:21;14.83;95.61
68609;SHT31;55581;46.718;7.690;2023-09-19T03:12:47;14.83;95.67
68609;SHT31;55581;46.718;7.690;2023-09-19T03:15:14;14.90;94.44
68609;SHT31;55581;46.718;7.690;2023-09-19T03:17:43;14.90;94.24
68609;SHT31;55581;46.718;7.690;2023-09-19T03:20:09;14.90;94.98
68609;SHT31;55581;46.718;7.690;2023-09-19T03:22:36;14.84;95.31
68609;SHT31;55581;46.718;7.690;2023-09-19T03:25:04;14.93;93.60
68609;SHT31;55581;46.718;7.690;2023-09-19T03:27:33;14.97;93.40
68609;SHT31;55581;46.718;7.690;2023-09-19T03:29:59;14.98;93.56
68609;SHT31;55581;46.718;7.690;2023-09-19T03:32:24;15.01;93.59
68609;SHT31;55581;46.718;7.690;2023-09-19T03:34:50;14.90;93.63
68609;SHT31;55581;46.718;7.690;2023-09-19T03:37:15;14.86;93.57
68609;SHT31;55581;46.718;7.690;2023-09-19T03:39:41;14.90;93.70
68609;SHT31;55581;46.718;7.690;2023-09-19T03:42:06;14.84;94.07
68609;SHT31;55581;46.718;7.690;2023-09-19T03:44:33;14.80;95.29
68609;SHT31;55581;46.718;7.690;2023-09-19T03:46:58;14.79;94.74
68609;SHT31;55581;46.718;7.690;2023-09-19T03:49:23;14.77;94.76
68609;SHT31;55581;46.718;7.690;2023-09-19T03:51:49;14.83;94.18
68609;SHT31;55581;46.718;7.690;2023-09-19T03:54:15;14.80;94.62
68609;SHT31;55581;46.718;7.690;2023-09-19T03:56:42;14.87;94.10
68609;SHT31;55581;46.718;7.690;2023-09-19T03:59:08;14.93;93.90
68609;SHT31;55581;46.718;7.690;2023-09-19T04:01:34;15.04;93.59
68609;SHT31;55581;46.718;7.690;2023-09-19T04:04:00;15.06;93.46
68609;SHT31;55581;46.718;7.690;2023-09-19T04:06:33;15.14;92.79
68609;SHT31;55581;46.718;7.690;2023-09-19T04:09:00;15.16;92.86
68609;SHT31;55581;46.718;7.690;2023-09-19T04:11:27;15.10;92.67
68609;SHT31;55581;46.718;7.690;2023-09-19T04:13:52;15.08;93.00
68609;SHT31;55581;46.718;7.690;2023-09-19T04:16:17;15.12;93.41
68609;SHT31;55581;46.718;7.690;2023-09-19T04:18:43;15.11;93.64
68609;SHT31;55581;46.718;7.690;2023-09-19T04:21:08;15.08;93.94
68609;SHT31;55581;46.718;7.690;2023-09-19T04:23:34;15.04;94.40
68609;SHT31;55581;46.718;7.690;2023-09-19T04:25:59;14.98;94.92
68609;SHT31;55581;46.718;7.690;2023-09-19T04:28:29;14.93;95.29
68609;SHT31;55581;46.718;7.690;2023-09-19T04:30:56;14.96;95.21
68609;SHT31;55581;46.718;7.690;2023-09-19T04:33:24;15.00;94.80
68609;SHT31;55581;46.718;7.690;2023-09-19T04:35:50;15.16;94.12
68609;SHT31;55581;46.718;7.690;2023-09-19T04:38:17;15.17;93.75
68609;SHT31;55581;46.718;7.690;2023-09-19T04:40:44;15.18;94.28
68609;SHT31;55581;46.718;7.690;2023-09-19T04:43:09;15.31;93.60
68609;SHT31;55581;46.718;7.690;2023-09-19T04:45:35;15.34;93.89
68609;SHT31;55581;46.718;7.690;2023-09-19T04:48:00;15.30;94.12
68609;SHT31;55581;46.718;7.690;2023-09-19T04:50:25;15.28;94.56
68609;SHT31;55581;46.718;7.690;2023-09-19T04:52:53;15.32;94.23
68609;SHT31;55581;46.718;7.690;2023-09-19T04:55:19;15.30;94.02
68609;SHT31;55581;46.718;7.690;2023-09-19T04:57:44;15.31;93.65
68609;SHT31;55581;46.718;7.690;2023-09-19T05:00:15;15.31;93.66
68609;SHT31;55581;46.718;7.690;2023-09-19T05:02:45;15.28;94.20
68609;SHT31;55581;46.718;7.690;2023-09-19T05:05:11;15.24;94.43
68609;SHT31;55581;46.718;7.690;2023-09-19T05:07:38;15.23;94.66
68609;SHT31;55581;46.718;7.690;2023-09-19T05:10:04;15.18;94.88
68609;SHT31;55581;46.718;7.690;2023-09-19T05:12:36;15.17;95.30
68609;SHT31;55581;46.718;7.690;2023-09-19T05:15:03;15.20;95.09
68609;SHT31;55581;46.718;7.690;2023-09-19T05:17:28;15.16;95.23
68609;SHT31;55581;46.718;7.690;2023-09-19T05:19:54;15.21;94.97
68609;SHT31;55581;46.718;7.690;2023-09-19T05:22:19;15.25;94.11
68609;SHT31;55581;46.718;7.690;2023-09-19T05:24:45;15.27;94.33
68609;SHT31;55581;46.718;7.690;2023-09-19T05:27:19;15.30;94.32
68609;SHT31;55581;46.718;7.690;2023-09-19T05:29:46;15.27;94.26
68609;SHT31;55581;46.718;7.690;2023-09-19T05:32:12;15.31;94.32
68609;SHT31;55581;46.718;7.690;2023-09-19T05:34:38;15.36;93.84
68609;SHT31;55581;46.718;7.690;2023-09-19T05:37:04;15.38;93.80
68609;SHT31;55581;46.718;7.690;2023-09-19T05:39:32;15.35;94.10
68609;SHT31;55581;46.718;7.690;2023-09-19T05:41:58;15.34;94.50
68609;SHT31;55581;46.718;7.690;2023-09-19T05:44:23;15.27;94.22
68609;SHT31;55581;46.718;7.690;2023-09-19T05:46:48;15.30;95.04
68609;SHT31;55581;46.718;7.690;2023-09-19T05:49:14;15.34;95.18
68609;SHT31;55581;46.718;7.690;2023-09-19T05:51:43;15.32;95.39
68609;SHT31;55581;46.718;7.690;2023-09-19T05:54:08;15.30;95.36
68609;SHT31;55581;46.718;7.690;2023-09-19T05:56:34;15.21;95.66
68609;SHT31;55581;46.718;7.690;2023-09-19T05:58:59;15.24;95.69
68609;SHT31;55581;46.718;7.690;2023-09-19T06:01:25;15.23;95.28
68609;SHT31;55581;46.718;7.690;2023-09-19T06:03:50;15.14;95.86
68609;SHT31;55581;46.718;7.690;2023-09-19T06:06:16;15.12;95.58
68609;SHT31;55581;46.718;7.690;2023-09-19T06:08:41;15.08;95.42
68609;SHT31;55581;46.718;7.690;2023-09-19T06:11:10;15.04;95.87
68609;SHT31;55581;46.718;7.690;2023-09-19T06:13:36;15.06;95.56
68609;SHT31;55581;46.718;7.690;2023-09-19T06:16:04;15.12;95.74
68609;SHT31;55581;46.718;7.690;2023-09-19T06:18:31;15.17;95.99
68609;SHT31;55581;46.718;7.690;2023-09-19T06:20:59;15.17;96.49
68609;SHT31;55581;46.718;7.690;2023-09-19T06:23:32;15.14;95.99
68609;SHT31;55581;46.718;7.690;2023-09-19T06:25:59;15.06;96.03
68609;SHT31;55581;46.718;7.690;2023-09-19T06:28:25;15.17;96.13
68609;SHT31;55581;46.718;7.690;2023-09-19T06:30:56;15.21;96.42
68609;SHT31;55581;46.718;7.690;2023-09-19T06:33:24;15.24;96.57
68609;SHT31;55581;46.718;7.690;2023-09-19T06:35:50;15.30;96.48
68609;SHT31;55581;46.718;7.690;2023-09-19T06:38:22;15.41;96.79
68609;SHT31;55581;46.718;7.690;2023-09-19T06:40:47;15.54;96.46
68609;SHT31;55581;46.718;7.690;2023-09-19T06:43:13;15.63;95.58
68609;SHT31;55581;46.718;7.690;2023-09-19T06:45:39;15.76;95.54
68609;SHT31;55581;46.718;7.690;2023-09-19T06:48:05;15.90;95.30
68609;SHT31;55581;46.718;7.690;2023-09-19T06:50:30;16.01;95.18
68609;SHT31;55581;46.718;7.690;2023-09-19T06:52:57;16.06;94.38
68609;SHT31;55581;46.718;7.690;2023-09-19T06:55:24;16.07;94.54
68609;SHT31;55581;46.718;7.690;2023-09-19T06:57:53;16.13;94.34
68609;SHT31;55581;46.718;7.690;2023-09-19T07:00:22;16.18;94.19
68609;SHT31;55581;46.718;7.690;2023-09-19T07:03:14;16.21;93.44
68609;SHT31;55581;46.718;7.690;2023-09-19T07:05:41;16.31;93.83
68609;SHT31;55581;46.718;7.690;2023-09-19T07:08:08;16.37;93.06
68609;SHT31;55581;46.718;7.690;2023-09-19T07:10:38;16.51;92.80
68609;SHT31;55581;46.718;7.690;2023-09-19T07:13:07;16.58;93.01
68609;SHT31;55581;46.718;7.690;2023-09-19T07:15:37;16.54;91.41
68609;SHT31;55581;46.718;7.690;2023-09-19T07:18:07;16.58;91.64
68609;SHT31;55581;46.718;7.690;2023-09-19T07:20:36;16.64;91.35
68609;SHT31;55581;46.718;7.690;2023-09-19T07:23:03;16.72;91.70
68609;SHT31;55581;46.718;7.690;2023-09-19T07:25:31;16.56;89.99
68609;SHT31;55581;46.718;7.690;2023-09-19T07:27:59;16.66;90.17
68609;SHT31;55581;46.718;7.690;2023-09-19T07:30:25;16.71;89.71
68609;SHT31;55581;46.718;7.690;2023-09-19T07:32:54;16.75;88.22
68609;SHT31;55581;46.718;7.690;2023-09-19T07:35:22;16.80;89.77
68609;SHT31;55581;46.718;7.690;2023-09-19T07:37:48;16.83;88.85
68609;SHT31;55581;46.718;7.690;2023-09-19T07:40:18;16.96;88.97
68609;SHT31;55581;46.718;7.690;2023-09-19T07:42:46;16.94;88.27
68609;SHT31;55581;46.718;7.690;2023-09-19T07:45:12;16.93;87.56
68609;SHT31;55581;46.718;7.690;2023-09-19T07:47:49;17.10;87.60
68609;SHT31;55581;46.718;7.690;2023-09-19T07:50:21;17.17;87.29
68609;SHT31;55581;46.718;7.690;2023-09-19T07:52:50;17.31;87.86
68609;SHT31;55581;46.718;7.690;2023-09-19T07:55:19;17.41;86.78
68609;SHT31;55581;46.718;7.690;2023-09-19T07:57:48;17.59;86.34
68609;SHT31;55581;46.718;7.690;2023-09-19T08:00:14;17.64;85.42
68609;SHT31;55581;46.718;7.690;2023-09-19T08:02:40;17.58;83.69
68609;SHT31;55581;46.718;7.690;2023-09-19T08:05:07;17.58;86.72
68609;SHT31;55581;46.718;7.690;2023-09-19T08:07:41;17.52;83.65
68609;SHT31;55581;46.718;7.690;2023-09-19T08:10:07;17.48;85.31
68609;SHT31;55581;46.718;7.690;2023-09-19T08:12:36;17.42;85.68
68609;SHT31;55581;46.718;7.690;2023-09-19T08:15:03;17.45;85.97
68609;SHT31;55581;46.718;7.690;2023-09-19T08:17:28;17.45;86.78
68609;SHT31;55581;46.718;7.690;2023-09-19T08:19:54;17.62;86.37
68609;SHT31;55581;46.718;7.690;2023-09-19T08:22:22;17.55;84.80
68609;SHT31;55581;46.718;7.690;2023-09-19T08:24:48;17.52;85.13
68609;SHT31;55581;46.718;7.690;2023-09-19T08:27:16;17.65;85.18
68609;SHT31;55581;46.718;7.690;2023-09-19T08:29:43;17.74;83.60
68609;SHT31;55581;46.718;7.690;2023-09-19T08:32:09;17.78;84.23
68609;SHT31;55581;46.718;7.690;2023-09-19T08:34:34;18.02;82.42
68609;SHT31;55581;46.718;7.690;2023-09-19T08:37:03;18.12;80.87
68609;SHT31;55581;46.718;7.690;2023-09-19T08:39:30;18.27;77.75
68609;SHT31;55581;46.718;7.690;2023-09-19T08:41:59;18.52;77.92
68609;SHT31;55581;46.718;7.690;2023-09-19T08:44:25;18.65;80.52
68609;SHT31;55581;46.718;7.690;2023-09-19T08:46:54;18.81;78.85
68609;SHT31;55581;46.718;7.690;2023-09-19T08:49:44;18.78;79.44
68609;SHT31;55581;46.718;7.690;2023-09-19T08:52:20;18.86;79.66
68609;SHT31;55581;46.718;7.690;2023-09-19T08:54:47;18.91;80.86
68609;SHT31;55581;46.718;7.690;2023-09-19T08:57:15;19.14;79.32
68609;SHT31;55581;46.718;7.690;2023-09-19T08:59:47;19.03;77.91
68609;SHT31;55581;46.718;7.690;2023-09-19T09:02:16;18.98;80.23
68609;SHT31;55581;46.718;7.690;2023-09-19T09:04:47;18.98;80.06
68609;SHT31;55581;46.718;7.690;2023-09-19T09:07:14;19.09;80.85
68609;SHT31;55581;46.718;7.690;2023-09-19T09:09:45;19.17;77.82
68609;SHT31;55581;46.718;7.690;2023-09-19T09:12:14;19.14;76.02
68609;SHT31;55581;46.718;7.690;2023-09-19T09:14:43;19.09;77.41
68609;SHT31;55581;46.718;7.690;2023-09-19T09:17:10;19.10;76.95
68609;SHT31;55581;46.718;7.690;2023-09-19T09:19:38;19.12;78.12
68609;SHT31;55581;46.718;7.690;2023-09-19T09:22:10;19.12;79.66
68609;SHT31;55581;46.718;7.690;2023-09-19T09:24:37;19.14;79.42
68609;SHT31;55581;46.718;7.690;2023-09-19T09:27:05;19.14;77.52
68609;SHT31;55581;46.718;7.690;2023-09-19T09:32:22;19.31;80.21
68609;SHT31;55581;46.718;7.690;2023-09-19T09:35:00;19.23;79.54
68609;SHT31;55581;46.718;7.690;2023-09-19T09:37:27;19.14;78.78
68609;SHT31;55581;46.718;7.690;2023-09-19T09:40:01;19.14;78.15
68609;SHT31;55581;46.718;7.690;2023-09-19T09:42:41;19.33;77.92
68609;SHT31;55581;46.718;7.690;2023-09-19T09:47:48;19.47;78.80
68609;SHT31;55581;46.718;7.690;2023-09-19T09:50:27;19.57;79.96
68609;SHT31;55581;46.718;7.690;2023-09-19T09:53:29;19.79;77.73
68609;SHT31;55581;46.718;7.690;2023-09-19T09:56:05;20.26;77.14
68609;SHT31;55581;46.718;7.690;2023-09-19T09:58:38;20.36;75.94
68609;SHT31;55581;46.718;7.690;2023-09-19T10:01:14;20.55;76.29
68609;SHT31;55581;46.718;7.690;2023-09-19T10:03:41;20.61;75.00
68609;SHT31;55581;46.718;7.690;2023-09-19T10:06:14;20.74;73.76
68609;SHT31;55581;46.718;7.690;2023-09-19T10:09:09;21.06;71.15
68609;SHT31;55581;46.718;7.690;2023-09-19T10:11:48;21.39;71.67
68609;SHT31;55581;46.718;7.690;2023-09-19T10:14:25;21.39;70.56
68609;SHT31;55581;46.718;7.690;2023-09-19T10:16:56;21.61;70.12
68609;SHT31;55581;46.718;7.690;2023-09-19T10:19:30;21.63;70.25
68609;SHT31;55581;46.718;7.690;2023-09-19T10:22:00;21.67;69.34
68609;SHT31;55581;46.718;7.690;2023-09-19T10:24:28;21.26;70.54
68609;SHT31;55581;46.718;7.690;2023-09-19T10:26:56;20.95;72.04
68609;SHT31;55581;46.718;7.690;2023-09-19T10:29:24;20.84;71.10
68609;SHT31;55581;46.718;7.690;2023-09-19T10:31:56;20.72;70.65
68609;SHT31;55581;46.718;7.690;2023-09-19T10:34:25;20.40;72.30
68609;SHT31;55581;46.718;7.690;2023-09-19T10:36:52;20.29;73.51
68609;SHT31;55581;46.718;7.690;2023-09-19T10:39:18;20.64;72.71
68609;SHT31;55581;46.718;7.690;2023-09-19T10:41:50;21.05;72.22
68609;SHT31;55581;46.718;7.690;2023-09-19T10:44:22;21.46;71.75
68609;SHT31;55581;46.718;7.690;2023-09-19T10:46:51;21.67;69.60
68609;SHT31;55581;46.718;7.690;2023-09-19T10:49:18;21.77;68.13
68609;SHT31;55581;46.718;7.690;2023-09-19T10:51:47;21.68;68.08
68609;SHT31;55581;46.718;7.690;2023-09-19T10:54:17;21.68;68.35
68609;SHT31;55581;46.718;7.690;2023-09-19T10:56:48;21.39;70.91
68609;SHT31;55581;46.718;7.690;2023-09-19T10:59:20;21.09;68.32
68609;SHT31;55581;46.718;7.690;2023-09-19T11:01:53;21.25;70.07
68609;SHT31;55581;46.718;7.690;2023-09-19T11:04:35;21.06;68.44
68609;SHT31;55581;46.718;7.690;2023-09-19T11:07:11;20.99;69.87
68609;SHT31;55581;46.718;7.690;2023-09-19T11:12:08;20.64;68.67
68609;SHT31;55581;46.718;7.690;2023-09-19T11:14:39;20.68;69.52
68609;SHT31;55581;46.718;7.690;2023-09-19T11:28:30;21.78;67.08
68609;SHT31;55581;46.718;7.690;2023-09-19T11:30:59;21.84;66.45
68609;SHT31;55581;46.718;7.690;2023-09-19T11:33:31;21.94;67.48
68609;SHT31;55581;46.718;7.690;2023-09-19T11:43:46;22.63;64.79
68609;SHT31;55581;46.718;7.690;2023-09-19T11:46:12;22.56;65.45
68609;SHT31;55581;46.718;7.690;2023-09-19T11:48:42;22.90;64.91
68609;SHT31;55581;46.718;7.690;2023-09-19T11:51:16;22.95;64.36
68609;SHT31;55581;46.718;7.690;2023-09-19T11:53:49;22.92;65.15
68609;SHT31;55581;46.718;7.690;2023-09-19T11:56:16;23.18;64.76
68609;SHT31;55581;46.718;7.690;2023-09-19T11:58:45;23.26;63.26
68609;SHT31;55581;46.718;7.690;2023-09-19T12:01:15;23.04;64.17
68609;SHT31;55581;46.718;7.690;2023-09-19T12:03:46;22.73;64.69
68609;SHT31;55581;46.718;7.690;2023-09-19T12:06:15;23.09;63.82
68609;SHT31;55581;46.718;7.690;2023-09-19T12:08:44;22.70;63.67
68609;SHT31;55581;46.718;7.690;2023-09-19T12:11:15;23.02;64.38
68609;SHT31;55581;46.718;7.690;2023-09-19T12:13:46;23.11;63.19
68609;SHT31;55581;46.718;7.690;2023-09-19T12:16:17;22.95;62.45
68609;SHT31;55581;46.718;7.690;2023-09-19T12:18:45;22.71;61.95
68609;SHT31;55581;46.718;7.690;2023-09-19T12:21:29;22.52;61.43
68609;SHT31;55581;46.718;7.690;2023-09-19T12:24:12;22.87;62.06
68609;SHT31;55581;46.718;7.690;2023-09-19T12:26:45;22.91;61.85
68609;SHT31;55581;46.718;7.690;2023-09-19T12:29:17;23.08;62.20
68609;SHT31;55581;46.718;7.690;2023-09-19T12:31:48;23.47;62.08
68609;SHT31;55581;46.718;7.690;2023-09-19T12:34:25;23.16;63.12
68609;SHT31;55581;46.718;7.690;2023-09-19T12:37:23;23.59;60.59
68609;SHT31;55581;46.718;7.690;2023-09-19T12:40:04;23.66;61.72
68609;SHT31;55581;46.718;7.690;2023-09-19T12:42:43;23.67;61.66
68609;SHT31;55581;46.718;7.690;2023-09-19T12:45:10;23.64;61.62
68609;SHT31;55581;46.718;7.690;2023-09-19T12:47:38;23.12;60.88
68609;SHT31;55581;46.718;7.690;2023-09-19T12:50:10;23.32;60.49
68609;SHT31;55581;46.718;7.690;2023-09-19T12:52:49;23.60;60.27
68609;SHT31;55581;46.718;7.690;2023-09-19T12:55:25;23.83;60.54
68609;SHT31;55581;46.718;7.690;2023-09-19T13:00:42;23.66;60.46
68609;SHT31;55581;46.718;7.690;2023-09-19T13:03:18;23.98;59.63
68609;SHT31;55581;46.718;7.690;2023-09-19T13:06:00;24.15;60.93
68609;SHT31;55581;46.718;7.690;2023-09-19T13:08:39;24.05;60.20
68609;SHT31;55581;46.718;7.690;2023-09-19T13:11:14;23.70;59.77
68609;SHT31;55581;46.718;7.690;2023-09-19T13:14:24;23.78;61.08
68609;SHT31;55581;46.718;7.690;2023-09-19T13:16:53;24.19;60.46
68609;SHT31;55581;46.718;7.690;2023-09-19T13:22:35;23.97;59.62
68609;SHT31;55581;46.718;7.690;2023-09-19T13:24:51;23.78;59.45
68609;SHT31;55581;46.718;7.690;2023-09-19T13:27:17;23.80;57.24
68609;SHT31;55581;46.718;7.690;2023-09-19T13:29:42;24.05;57.99
68609;SHT31;55581;46.718;7.690;2023-09-19T13:32:10;23.96;57.72
68609;SHT31;55581;46.718;7.690;2023-09-19T13:34:36;24.02;58.67
68609;SHT31;55581;46.718;7.690;2023-09-19T13:37:03;24.07;60.65
68609;SHT31;55581;46.718;7.690;2023-09-19T13:39:29;24.17;58.48
68609;SHT31;55581;46.718;7.690;2023-09-19T13:41:55;24.15;59.16
68609;SHT31;55581;46.718;7.690;2023-09-19T13:44:20;23.67;61.19
68609;SHT31;55581;46.718;7.690;2023-09-19T13:46:46;23.41;61.35
68609;SHT31;55581;46.718;7.690;2023-09-19T13:49:11;23.47;61.97
68609;SHT31;55581;46.718;7.690;2023-09-19T13:51:37;23.52;59.93
68609;SHT31;55581;46.718;7.690;2023-09-19T13:54:08;23.50;61.55
68609;SHT31;55581;46.718;7.690;2023-09-19T13:56:34;23.53;60.25
68609;SHT31;55581;46.718;7.690;2023-09-19T13:58:59;23.42;60.01
68609;SHT31;55581;46.718;7.690;2023-09-19T14:01:24;23.42;60.34
68609;SHT31;55581;46.718;7.690;2023-09-19T14:03:52;23.16;59.89
68609;SHT31;55581;46.718;7.690;2023-09-19T14:06:19;23.23;60.48
68609;SHT31;55581;46.718;7.690;2023-09-19T14:08:45;23.04;60.95
68609;SHT31;55581;46.718;7.690;2023-09-19T14:11:13;22.86;61.11
68609;SHT31;55581;46.718;7.690;2023-09-19T14:13:39;22.80;61.47
68609;SHT31;55581;46.718;7.690;2023-09-19T14:16:08;22.92;60.78
68609;SHT31;55581;46.718;7.690;2023-09-19T14:18:36;23.35;59.91
68609;SHT31;55581;46.718;7.690;2023-09-19T14:21:03;23.35;60.74
68609;SHT31;55581;46.718;7.690;2023-09-19T14:23:33;23.19;60.54
68609;SHT31;55581;46.718;7.690;2023-09-19T14:26:00;23.05;60.68
68609;SHT31;55581;46.718;7.690;2023-09-19T14:28:26;23.23;61.49
68609;SHT31;55581;46.718;7.690;2023-09-19T14:30:52;23.52;62.32
68609;SHT31;55581;46.718;7.690;2023-09-19T14:33:17;23.87;60.97
68609;SHT31;55581;46.718;7.690;2023-09-19T14:35:43;23.83;59.55
68609;SHT31;55581;46.718;7.690;2023-09-19T14:38:08;24.10;59.18
68609;SHT31;55581;46.718;7.690;2023-09-19T14:40:36;24.15;59.48
68609;SHT31;55581;46.718;7.690;2023-09-19T14:43:02;24.26;60.97
68609;SHT31;55581;46.718;7.690;2023-09-19T14:45:28;24.70;59.66
68609;SHT31;55581;46.718;7.690;2023-09-19T14:47:55;24.91;58.20
68609;SHT31;55581;46.718;7.690;2023-09-19T14:50:21;25.00;59.95
68609;SHT31;55581;46.718;7.690;2023-09-19T14:52:47;24.86;57.41
68609;SHT31;55581;46.718;7.690;2023-09-19T14:55:14;24.80;57.93
68609;SHT31;55581;46.718;7.690;2023-09-19T14:57:41;24.86;57.86
68609;SHT31;55581;46.718;7.690;2023-09-19T15:00:10;24.69;57.51
68609;SHT31;55581;46.718;7.690;2023-09-19T15:02:40;24.40;59.05
68609;SHT31;55581;46.718;7.690;2023-09-19T15:05:13;24.60;60.81
68609;SHT31;55581;46.718;7.690;2023-09-19T15:07:40;24.49;59.17
68609;SHT31;55581;46.718;7.690;2023-09-19T15:10:06;24.39;60.89
68609;SHT31;55581;46.718;7.690;2023-09-19T15:12:37;24.43;61.32
68609;SHT31;55581;46.718;7.690;2023-09-19T15:15:06;24.55;61.74
68609;SHT31;55581;46.718;7.690;2023-09-19T15:17:36;24.38;59.26
68609;SHT31;55581;46.718;7.690;2023-09-19T15:20:01;24.42;60.79
68609;SHT31;55581;46.718;7.690;2023-09-19T15:22:27;24.46;58.80
68609;SHT31;55581;46.718;7.690;2023-09-19T15:24:53;24.39;59.26
68609;SHT31;55581;46.718;7.690;2023-09-19T15:27:18;24.49;58.50
68609;SHT31;55581;46.718;7.690;2023-09-19T15:29:47;24.05;59.08
68609;SHT31;55581;46.718;7.690;2023-09-19T15:32:18;24.18;58.46
68609;SHT31;55581;46.718;7.690;2023-09-19T15:34:43;23.96;58.68
68609;SHT31;55581;46.718;7.690;2023-09-19T15:37:09;23.75;59.01
68609;SHT31;55581;46.718;7.690;2023-09-19T15:39:34;23.59;59.13
68609;SHT31;55581;46.718;7.690;2023-09-19T15:42:02;23.64;56.80
68609;SHT31;55581;46.718;7.690;2023-09-19T15:44:27;23.67;57.57
68609;SHT31;55581;46.718;7.690;2023-09-19T15:46:53;23.70;58.69
68609;SHT31;55581;46.718;7.690;2023-09-19T15:49:21;23.69;59.92
68609;SHT31;55581;46.718;7.690;2023-09-19T15:51:46;23.71;59.74
68609;SHT31;55581;46.718;7.690;2023-09-19T15:54:13;23.59;61.59
68609;SHT31;55581;46.718;7.690;2023-09-19T15:56:42;23.56;62.82
68609;SHT31;55581;46.718;7.690;2023-09-19T15:59:08;23.50;62.78
68609;SHT31;55581;46.718;7.690;2023-09-19T16:01:34;23.56;61.64
68609;SHT31;55581;46.718;7.690;2023-09-19T16:04:02;23.35;62.98
68609;SHT31;55581;46.718;7.690;2023-09-19T16:06:29;23.50;63.47
68609;SHT31;55581;46.718;7.690;2023-09-19T16:08:58;23.33;63.33
68609;SHT31;55581;46.718;7.690;2023-09-19T16:11:24;23.20;63.93
68609;SHT31;55581;46.718;7.690;2023-09-19T16:13:51;23.09;66.03
68609;SHT31;55581;46.718;7.690;2023-09-19T16:16:18;23.09;65.61
68609;SHT31;55581;46.718;7.690;2023-09-19T16:18:46;23.18;63.91
68609;SHT31;55581;46.718;7.690;2023-09-19T16:21:16;23.02;63.20
68609;SHT31;55581;46.718;7.690;2023-09-19T16:23:47;22.70;63.71
68609;SHT31;55581;46.718;7.690;2023-09-19T16:26:15;22.63;63.74
68609;SHT31;55581;46.718;7.690;2023-09-19T16:28:41;22.63;64.37